This is the latest recevied weather packets stored in our database for station/object CA2RRL-10. If no packets are shown the sender has not sent any weather packets the latest 1 day(s).
| Time | Temp. | Humidity | Pressure | Rain* | Wind** | Luminosity | Snow |
|---|---|---|---|---|---|---|---|
| 1778053735 | 11.11° C | 70% | 1029.6 hPa | - | - | - | - |
| 1778052835 | 11.11° C | 70% | 1029.3 hPa | - | - | - | - |
| 1778051935 | 11.11° C | 70% | 1029.4 hPa | - | - | - | - |
| 1778046534 | 12.22° C | 66% | 1029.9 hPa | - | - | - | - |
| 1778045634 | 12.22° C | 66% | 1029.9 hPa | - | - | - | - |
| 1778044734 | 12.78° C | 64% | 1029.9 hPa | - | - | - | - |
| 1778043834 | 12.78° C | 65% | 1029.9 hPa | - | - | - | - |
| 1778042934 | 12.78° C | 64% | 1030.1 hPa | - | - | - | - |
| 1778042034 | 13.33° C | 63% | 1029.9 hPa | - | - | - | - |
| 1778040233 | 13.89° C | 61% | 1029.8 hPa | - | - | - | - |
| 1778039333 | 13.89° C | 60% | 1029.8 hPa | - | - | - | - |
| 1778038433 | 14.44° C | 60% | 1029.7 hPa | - | - | - | - |
| 1778037533 | 14.44° C | 59% | 1029.8 hPa | - | - | - | - |
| 1778036633 | 14.44° C | 58% | 1029.9 hPa | - | - | - | - |
| 1778035733 | 15° C | 58% | 1029.8 hPa | - | - | - | - |
| 1778034833 | 15° C | 56% | 1029.7 hPa | - | - | - | - |
| 1778033933 | 15.56° C | 55% | 1029.7 hPa | - | - | - | - |
| 1778033033 | 15.56° C | 54% | 1029.6 hPa | - | - | - | - |
| 1778032133 | 16.11° C | 53% | 1029.5 hPa | - | - | - | - |
| 1778031232 | 16.11° C | 52% | 1029.6 hPa | - | - | - | - |
| 1778030332 | 16.11° C | 51% | 1029.5 hPa | - | - | - | - |
| 1778029432 | 16.67° C | 50% | 1029.5 hPa | - | - | - | - |
| 1778028532 | 16.67° C | 50% | 1029.3 hPa | - | - | - | - |
| 1778027632 | 17.22° C | 49% | 1029.1 hPa | - | - | - | - |
| 1778025832 | 17.78° C | 46% | 1028.6 hPa | - | - | - | - |
* Rain since midnight (hover to see other rain measurements)
** Current wind speed in m/s (hover to see current wind gust speed)